Time;durP1;ratioP1;P1;durP2;ratioP2;P2;SDS_P1;SDS_P2;PMS_P1;PMS_P2;Temp;Humidity;BMP_temperature;BMP_pressure;BME280_temperature;BME280_humidity;BME280_pressure;Samples;Min_cycle;Max_cycle;Signal;HPM_P1;HPM_P2
2021/12/25 00:00:31;;;;;;;;;;;;;;;14.12;63.52;100316.22;1046378;28;708;-56
2021/12/25 00:01:22;;;;;;;;;;;;;;;14.12;64.34;100318.88;1046243;28;625;-54
2021/12/25 00:02:12;;;;;;;;;;;;;;;14.12;63.45;100318.03;1047219;28;691;-56
2021/12/25 00:03:03;;;;;;;;;;;;;;;14.10;64.39;100312.81;1046009;28;629;-54
2021/12/25 00:03:53;;;;;;;;;;;;;;;14.09;64.29;100319.16;1047552;28;691;-56
2021/12/25 00:04:44;;;;;;;;;;;;;;;14.09;64.04;100316.47;1046157;28;625;-57
2021/12/25 00:05:34;;;;;;;;;;;;;;;14.11;63.89;100314.50;1046264;28;1076;-56
2021/12/25 00:06:25;;;;;;;;;;;;;;;14.11;63.74;100310.97;1046187;28;610;-56
2021/12/25 00:07:15;;;;;;;;;;;;;;;14.11;64.00;100316.34;1046047;28;653;-56
2021/12/25 00:08:06;;;;;;;;;;;;;;;14.11;63.42;100309.16;1046824;28;639;-55
2021/12/25 00:08:56;;;;;;;;;;;;;;;14.11;63.71;100316.34;1046320;28;712;-56
2021/12/25 00:09:46;;;;;;;;;;;;;;;14.09;63.69;100313.78;1046248;28;1963;-56
2021/12/25 00:10:37;;;;;;;;;;;;;;;14.11;64.15;100317.19;1046301;28;633;-56
2021/12/25 00:11:27;;;;;;;;;;;;;;;14.10;63.65;100315.50;1042748;28;807;-57
2021/12/25 00:12:18;;;;;;;;;;;;;;;14.09;63.87;100324.50;1041821;28;677;-53
2021/12/25 00:13:08;;;;;;;;;;;;;;;14.10;63.55;100317.31;1046100;28;978;-56
2021/12/25 00:13:58;;;;;;;;;;;;;;;14.09;64.22;100324.50;1046388;28;673;-53
2021/12/25 00:14:49;;;;;;;;;;;;;;;14.08;64.06;100322.81;1046347;28;760;-56
2021/12/25 00:15:40;;;;;;;;;;;;;;;14.07;63.60;100320.28;1046156;28;743;-56
2021/12/25 00:16:30;;;;;;;;;;;;;;;14.08;63.79;100328.19;1046302;28;723;-56
2021/12/25 00:17:20;;;;;;;;;;;;;;;14.07;64.27;100326.47;1046104;28;724;-56
2021/12/25 00:18:11;;;;;;;;;;;;;;;14.07;63.89;100321.13;1046224;28;704;-55
2021/12/25 00:19:01;;;;;;;;;;;;;;;14.06;64.27;100318.56;1046250;28;665;-53
2021/12/25 00:19:52;;;;;;;;;;;;;;;14.06;64.17;100324.78;1046145;28;633;-55
2021/12/25 00:20:42;;;;;;;;;;;;;;;14.06;63.68;100330.13;1050383;28;656;-56
2021/12/25 00:21:32;;;;;;;;;;;;;;;14.05;63.42;100325.75;1050307;28;669;-55
2021/12/25 00:22:23;;;;;;;;;;;;;;;14.07;64.41;100325.63;1050206;28;636;-56
2021/12/25 00:23:13;;;;;;;;;;;;;;;14.05;64.32;100331.13;1050843;28;680;-56
2021/12/25 00:24:04;;;;;;;;;;;;;;;14.05;64.24;100333.78;1050279;28;629;-55
2021/12/25 00:24:54;;;;;;;;;;;;;;;14.04;64.00;100334.78;1050401;28;711;-50
2021/12/25 00:25:50;;;;;;;;;;;;;;;14.05;64.19;100327.59;1050230;28;699;-58
2021/12/25 00:26:49;;;;;;;;;;;;;;;14.05;64.17;100325.75;1049388;28;668;-56
2021/12/25 00:27:54;;;;;;;;;;;;;;;14.04;63.93;100321.38;1049287;28;739;-56
2021/12/25 00:28:55;;;;;;;;;;;;;;;14.04;63.58;100331.25;1050342;28;748;-56
2021/12/25 00:30:43;;;;;;;;;;;;;;;14.04;64.05;100326.75;1050442;28;786;-58
2021/12/25 00:31:50;;;;;;;;;;;;;;;14.04;64.14;100331.25;1049257;28;645;-58
2021/12/25 00:32:51;;;;;;;;;;;;;;;14.01;64.01;100321.66;1046717;28;1731;-58
2021/12/25 00:34:32;;;;;;;;;;;;;;;14.02;64.23;100328.69;1046556;28;1798;-58
2021/12/25 00:35:23;;;;;;;;;;;;;;;14.02;63.58;100322.50;1046100;28;914;-58
2021/12/25 00:36:13;;;;;;;;;;;;;;;14.02;64.12;100328.69;1046099;28;656;-57
2021/12/25 00:37:03;;;;;;;;;;;;;;;14.03;64.08;100332.22;1046741;28;762;-58
2021/12/25 00:37:54;;;;;;;;;;;;;;;14.03;63.95;100330.41;1046149;28;723;-58
2021/12/25 00:38:44;;;;;;;;;;;;;;;14.03;63.54;100325.03;1046107;28;868;-58
2021/12/25 00:39:35;;;;;;;;;;;;;;;14.04;63.95;100332.09;1046186;28;638;-58
2021/12/25 00:40:28;;;;;;;;;;;;;;;14.02;63.76;100327.84;1046006;28;645;-58
2021/12/25 00:41:18;;;;;;;;;;;;;;;14.01;63.33;100324.31;1047169;28;664;-58
2021/12/25 00:42:08;;;;;;;;;;;;;;;14.00;63.74;100319.94;1046749;28;685;-58
2021/12/25 00:42:59;;;;;;;;;;;;;;;14.00;63.74;100332.50;1046160;28;617;-58
2021/12/25 00:43:49;;;;;;;;;;;;;;;14.00;63.99;100327.13;1046241;28;637;-58
2021/12/25 00:44:41;;;;;;;;;;;;;;;14.00;63.47;100333.34;1048879;28;1665;-58
2021/12/25 00:45:32;;;;;;;;;;;;;;;13.99;63.36;100337.00;1049189;28;704;-58
2021/12/25 00:46:22;;;;;;;;;;;;;;;14.01;63.65;100340.41;1045876;28;637;-58
2021/12/25 00:47:13;;;;;;;;;;;;;;;14.00;63.38;100332.50;1045667;28;635;-57
2021/12/25 00:48:03;;;;;;;;;;;;;;;13.99;63.92;100334.31;1050667;28;684;-57
2021/12/25 00:48:53;;;;;;;;;;;;;;;14.00;64.02;100337.84;1050141;28;848;-58
2021/12/25 00:49:44;;;;;;;;;;;;;;;13.99;63.23;100331.66;1047996;28;1983;-58
2021/12/25 00:50:34;;;;;;;;;;;;;;;13.97;63.60;100336.31;1046556;28;1701;-57
2021/12/25 00:51:25;;;;;;;;;;;;;;;13.97;63.05;100330.97;1046659;28;625;-55
2021/12/25 00:52:15;;;;;;;;;;;;;;;13.98;63.81;100329.94;1046563;28;652;-56
2021/12/25 00:53:05;;;;;;;;;;;;;;;13.98;63.63;100337.13;1046582;28;684;-54
2021/12/25 00:53:56;;;;;;;;;;;;;;;13.96;63.67;100331.94;1046198;28;637;-56
2021/12/25 00:54:46;;;;;;;;;;;;;;;13.96;63.92;100339.97;1046096;28;629;-55
2021/12/25 00:55:37;;;;;;;;;;;;;;;13.98;63.15;100337.13;1046204;28;635;-55
2021/12/25 00:56:27;;;;;;;;;;;;;;;13.98;63.64;100337.97;1046071;28;700;-56
2021/12/25 00:57:18;;;;;;;;;;;;;;;13.96;63.45;100334.63;1046527;28;676;-54
2021/12/25 00:58:08;;;;;;;;;;;;;;;13.96;63.23;100345.34;1046150;28;653;-56
2021/12/25 00:58:58;;;;;;;;;;;;;;;13.96;63.97;100339.13;1046103;28;879;-57
2021/12/25 00:59:49;;;;;;;;;;;;;;;13.96;63.80;100334.63;1046193;28;689;-56
2021/12/25 01:00:39;;;;;;;;;;;;;;;13.96;63.32;100344.47;1046239;28;649;-57
2021/12/25 01:01:30;;;;;;;;;;;;;;;13.95;63.27;100340.09;1045897;28;759;-57
2021/12/25 01:02:20;;;;;;;;;;;;;;;13.92;63.27;100333.19;1042246;28;758;-57
2021/12/25 01:03:10;;;;;;;;;;;;;;;13.95;63.01;100342.78;1040343;28;684;-57
2021/12/25 01:04:01;;;;;;;;;;;;;;;13.96;63.98;100345.34;1046090;28;688;-57
2021/12/25 01:04:51;;;;;;;;;;;;;;;13.94;63.46;100341.94;1046033;28;699;-57
2021/12/25 01:05:42;;;;;;;;;;;;;;;13.94;63.71;100351.81;1045888;28;693;-57
2021/12/25 01:06:32;;;;;;;;;;;;;;;13.95;63.53;100350.81;1046123;28;740;-57
2021/12/25 01:07:22;;;;;;;;;;;;;;;13.92;63.71;100348.41;1042074;28;637;-57
2021/12/25 01:08:13;;;;;;;;;;;;;;;13.94;63.28;100351.81;1042161;28;938;-57
2021/12/25 01:09:03;;;;;;;;;;;;;;;13.94;63.19;100357.16;1046145;28;637;-58
2021/12/25 01:09:54;;;;;;;;;;;;;;;13.93;63.86;100353.63;1045834;28;1939;-58
2021/12/25 01:10:44;;;;;;;;;;;;;;;13.93;63.92;100360.81;1046066;28;697;-58
2021/12/25 01:11:36;;;;;;;;;;;;;;;13.91;64.03;100350.22;1046669;28;652;-58
2021/12/25 01:12:30;;;;;;;;;;;;;;;13.93;63.59;100356.31;1046967;28;675;-58
2021/12/25 01:13:28;;;;;;;;;;;;;;;13.92;63.44;100357.28;1047232;28;624;-58
2021/12/25 01:14:28;;;;;;;;;;;;;;;13.92;63.92;100359.13;1045001;28;720;-58
2021/12/25 01:15:22;;;;;;;;;;;;;;;13.92;63.70;100359.13;1045442;28;740;-58
2021/12/25 01:18:23;;;;;;;;;;;;;;;13.91;63.72;100358.25;1045367;28;672;-58
2021/12/25 01:19:42;;;;;;;;;;;;;;;13.93;63.00;100360.81;1046049;28;676;-58
2021/12/25 01:21:05;;;;;;;;;;;;;;;13.92;62.98;100362.66;1045313;28;1014;-58
2021/12/25 01:23:48;;;;;;;;;;;;;;;13.90;63.66;100354.75;1046531;28;740;-57
2021/12/25 01:24:48;;;;;;;;;;;;;;;13.90;63.57;100357.41;1045119;28;988;-58
2021/12/25 01:30:55;;;;;;;;;;;;;;;13.88;63.18;100353.16;1045842;28;771;-57
2021/12/25 01:31:57;;;;;;;;;;;;;;;13.87;63.34;100352.31;1045857;28;707;-58
2021/12/25 01:33:08;;;;;;;;;;;;;;;13.86;62.59;100352.44;1045641;28;1704;-58
2021/12/25 01:37:09;;;;;;;;;;;;;;;13.84;62.52;100349.06;1049819;28;719;-58
2021/12/25 01:38:22;;;;;;;;;;;;;;;13.83;62.86;100360.75;1048802;28;684;-58
2021/12/25 01:39:26;;;;;;;;;;;;;;;13.83;63.16;100358.06;1049035;28;724;-58
2021/12/25 01:40:47;;;;;;;;;;;;;;;13.80;63.46;100348.47;1045599;28;616;-55
2021/12/25 01:47:53;;;;;;;;;;;;;;;13.81;63.29;100346.63;1046485;28;672;-58
2021/12/25 01:48:44;;;;;;;;;;;;;;;13.80;63.22;100344.94;1045828;28;684;-57
2021/12/25 01:49:35;;;;;;;;;;;;;;;13.81;62.92;100342.13;1046883;28;1204;-56
2021/12/25 01:50:25;;;;;;;;;;;;;;;13.80;62.33;100345.78;1046304;28;926;-57
2021/12/25 01:51:16;;;;;;;;;;;;;;;13.80;62.49;100353.81;1046409;28;637;-56
2021/12/25 01:52:06;;;;;;;;;;;;;;;13.80;63.18;100352.97;1046409;28;692;-55
2021/12/25 01:52:56;;;;;;;;;;;;;;;13.80;62.46;100350.28;1045827;28;704;-57
2021/12/25 01:53:47;;;;;;;;;;;;;;;13.81;63.16;100346.63;1046459;28;629;-57
2021/12/25 01:54:37;;;;;;;;;;;;;;;13.78;62.58;100347.78;1046427;28;660;-57
2021/12/25 01:55:28;;;;;;;;;;;;;;;13.79;62.24;100360.16;1046383;28;628;-57
2021/12/25 01:56:18;;;;;;;;;;;;;;;13.81;62.59;100354.66;1046385;28;613;-57
2021/12/25 01:57:08;;;;;;;;;;;;;;;13.80;63.04;100348.47;1045922;28;715;-57
2021/12/25 01:57:59;;;;;;;;;;;;;;;13.79;63.05;100356.66;1046333;28;773;-57
2021/12/25 01:58:49;;;;;;;;;;;;;;;13.79;62.20;100360.16;1046507;28;648;-57
2021/12/25 01:59:40;;;;;;;;;;;;;;;13.79;62.71;100359.34;1046330;28;617;-58
2021/12/25 02:00:30;;;;;;;;;;;;;;;13.77;62.15;100355.94;1046445;28;688;-57
2021/12/25 02:01:20;;;;;;;;;;;;;;;13.78;63.05;100357.63;1045817;28;688;-57
2021/12/25 02:02:11;;;;;;;;;;;;;;;13.77;62.32;100370.19;1045702;28;633;-58
2021/12/25 02:03:01;;;;;;;;;;;;;;;13.78;62.28;100357.63;1045834;28;633;-57
2021/12/25 02:03:52;;;;;;;;;;;;;;;13.77;62.89;100356.78;1045691;28;633;-58
2021/12/25 02:04:42;;;;;;;;;;;;;;;13.77;62.36;100362.16;1045800;28;735;-58
2021/12/25 02:05:33;;;;;;;;;;;;;;;13.77;62.73;100366.66;1040771;28;1080;-57
2021/12/25 02:06:23;;;;;;;;;;;;;;;13.78;62.68;100363.00;1040798;28;701;-57
2021/12/25 02:07:13;;;;;;;;;;;;;;;13.78;62.41;100365.66;1045123;28;637;-58
2021/12/25 02:08:05;;;;;;;;;;;;;;;13.76;62.69;100365.81;1045680;28;1116;-57
2021/12/25 02:08:55;;;;;;;;;;;;;;;13.77;62.29;100363.97;1045899;28;767;-58
2021/12/25 02:09:46;;;;;;;;;;;;;;;13.76;62.90;100365.81;1045739;28;1993;-58
2021/12/25 02:10:36;;;;;;;;;;;;;;;13.75;62.72;100373.97;1045796;28;611;-58
2021/12/25 02:11:26;;;;;;;;;;;;;;;13.76;62.14;100370.31;1045820;28;637;-58
2021/12/25 02:12:17;;;;;;;;;;;;;;;13.76;62.47;100373.84;1046266;28;773;-57
2021/12/25 02:13:09;;;;;;;;;;;;;;;13.76;62.76;100372.97;1045872;28;656;-58
2021/12/25 02:14:00;;;;;;;;;;;;;;;13.74;62.77;100367.75;1046105;28;1894;-58
2021/12/25 02:14:51;;;;;;;;;;;;;;;13.74;62.62;100364.22;1046390;28;668;-57
2021/12/25 02:15:45;;;;;;;;;;;;;;;13.72;62.57;100366.19;1046389;28;653;-58
2021/12/25 02:16:50;;;;;;;;;;;;;;;13.73;62.13;100362.53;1045076;28;752;-58
2021/12/25 02:19:55;;;;;;;;;;;;;;;13.71;62.23;100369.84;1046317;28;681;-55
2021/12/25 02:20:55;;;;;;;;;;;;;;;13.72;62.47;100363.50;1044431;28;661;-56
2021/12/25 02:21:46;;;;;;;;;;;;;;;13.72;62.65;100363.50;1045726;28;720;-56
2021/12/25 02:22:36;;;;;;;;;;;;;;;13.72;62.48;100369.72;1045536;28;637;-55
2021/12/25 02:23:26;;;;;;;;;;;;;;;13.71;62.64;100356.44;1045727;28;688;-57
2021/12/25 02:24:17;;;;;;;;;;;;;;;13.71;62.02;100356.44;1046385;28;623;-56
2021/12/25 02:25:07;;;;;;;;;;;;;;;13.71;62.19;100356.44;1046270;28;653;-57
2021/12/25 02:25:58;;;;;;;;;;;;;;;13.70;61.85;100352.06;1047053;28;612;-57
2021/12/25 02:26:48;;;;;;;;;;;;;;;13.70;61.91;100360.09;1046332;28;661;-57
2021/12/25 02:27:39;;;;;;;;;;;;;;;13.70;62.08;100360.09;1045142;28;667;-57
2021/12/25 02:28:29;;;;;;;;;;;;;;;13.69;62.25;100356.59;1046343;28;669;-57
2021/12/25 02:29:19;;;;;;;;;;;;;;;13.70;62.43;100355.59;1046222;28;672;-57
2021/12/25 02:30:10;;;;;;;;;;;;;;;13.70;61.90;100354.75;1047032;28;715;-57
2021/12/25 02:31:00;;;;;;;;;;;;;;;13.70;62.10;100354.75;1046238;28;708;-58
2021/12/25 02:31:51;;;;;;;;;;;;;;;13.69;62.24;100359.25;1046839;28;867;-57
2021/12/25 02:32:41;;;;;;;;;;;;;;;13.68;62.11;100356.72;1045925;28;719;-57
2021/12/25 02:33:31;;;;;;;;;;;;;;;13.69;62.79;100366.44;1045709;28;653;-55
2021/12/25 02:34:22;;;;;;;;;;;;;;;13.67;62.40;100363.03;1045761;28;684;-56
2021/12/25 02:35:13;;;;;;;;;;;;;;;13.66;62.64;100364.88;1045588;28;868;-57
2021/12/25 02:36:03;;;;;;;;;;;;;;;13.66;62.61;100366.69;1045128;28;626;-56
2021/12/25 02:36:54;;;;;;;;;;;;;;;13.67;62.51;100363.91;1044424;28;639;-58
2021/12/25 02:37:44;;;;;;;;;;;;;;;13.69;62.58;100363.75;1045760;28;641;-56
2021/12/25 02:38:34;;;;;;;;;;;;;;;13.68;62.59;100370.09;1045810;28;708;-56
2021/12/25 02:39:25;;;;;;;;;;;;;;;13.68;61.94;100364.75;1045543;28;680;-57
2021/12/25 02:40:15;;;;;;;;;;;;;;;13.67;62.60;100358.53;1045743;28;645;-56
2021/12/25 02:41:06;;;;;;;;;;;;;;;13.69;62.59;100363.75;1041955;28;681;-57
2021/12/25 02:41:56;;;;;;;;;;;;;;;13.69;62.60;100363.75;1041395;28;633;-56
2021/12/25 02:42:46;;;;;;;;;;;;;;;13.67;62.72;100363.03;1042214;28;668;-57
2021/12/25 02:43:37;;;;;;;;;;;;;;;13.68;62.16;100354.03;1041199;28;709;-57
2021/12/25 02:44:27;;;;;;;;;;;;;;;13.68;61.93;100362.06;1045279;28;1804;-57
2021/12/25 02:45:18;;;;;;;;;;;;;;;13.66;62.35;100353.31;1046278;28;660;-57
2021/12/25 02:46:09;;;;;;;;;;;;;;;13.65;62.93;100359.66;1046177;28;1464;-56
2021/12/25 02:47:09;;;;;;;;;;;;;;;13.64;62.35;100355.25;1046248;28;605;-57
2021/12/25 02:47:59;;;;;;;;;;;;;;;13.64;62.17;100357.94;1046221;28;672;-56
2021/12/25 02:48:52;;;;;;;;;;;;;;;13.64;62.76;100353.44;1046281;28;708;-56
2021/12/25 02:49:42;;;;;;;;;;;;;;;13.64;61.97;100361.47;1047686;28;1914;-57
2021/12/25 02:50:33;;;;;;;;;;;;;;;13.65;62.30;100354.28;1048560;28;1009;-57
2021/12/25 02:51:23;;;;;;;;;;;;;;;13.66;61.62;100358.66;1048595;28;626;-57
2021/12/25 02:52:14;;;;;;;;;;;;;;;13.64;61.93;100361.47;1048453;28;642;-58
2021/12/25 02:53:04;;;;;;;;;;;;;;;13.64;62.51;100357.94;1048769;28;629;-57
2021/12/25 02:53:55;;;;;;;;;;;;;;;13.64;62.29;100358.78;1050610;28;637;-57
2021/12/25 02:54:45;;;;;;;;;;;;;;;13.63;61.83;100348.22;1048697;28;1601;-57
2021/12/25 02:55:36;;;;;;;;;;;;;;;13.63;62.30;100354.41;1050734;28;709;-57
2021/12/25 02:56:26;;;;;;;;;;;;;;;13.63;61.76;100346.38;1050627;28;676;-57
2021/12/25 02:57:17;;;;;;;;;;;;;;;13.63;62.11;100348.22;1050690;28;763;-55
2021/12/25 02:58:07;;;;;;;;;;;;;;;13.63;62.11;100346.38;1050586;28;665;-57
2021/12/25 02:58:57;;;;;;;;;;;;;;;13.61;61.47;100343.03;1046301;28;673;-58
2021/12/25 02:59:48;;;;;;;;;;;;;;;13.62;61.64;100352.72;1042194;28;661;-57
2021/12/25 03:00:38;;;;;;;;;;;;;;;13.61;62.10;100347.53;1046090;28;689;-52
2021/12/25 03:01:29;;;;;;;;;;;;;;;13.61;62.29;100351.06;1051225;28;636;-54
2021/12/25 03:02:19;;;;;;;;;;;;;;;13.63;61.72;100358.94;1042513;28;715;-52
2021/12/25 03:03:09;;;;;;;;;;;;;;;13.61;62.32;100353.72;1042112;28;689;-54
2021/12/25 03:04:00;;;;;;;;;;;;;;;13.60;61.98;100352.03;1046987;28;636;-53
2021/12/25 03:04:50;;;;;;;;;;;;;;;13.59;62.01;100352.16;1046598;28;679;-52
2021/12/25 03:05:41;;;;;;;;;;;;;;;13.59;62.39;100357.50;1046609;28;708;-54
2021/12/25 03:06:31;;;;;;;;;;;;;;;13.59;62.23;100352.16;1046377;28;683;-55
2021/12/25 03:07:21;;;;;;;;;;;;;;;13.59;62.43;100352.16;1046436;28;703;-50
2021/12/25 03:08:12;;;;;;;;;;;;;;;13.59;61.94;100349.47;1046494;28;680;-54
2021/12/25 03:09:02;;;;;;;;;;;;;;;13.60;62.16;100353.84;1046557;28;953;-55
2021/12/25 03:09:53;;;;;;;;;;;;;;;13.58;61.72;100353.97;1046550;28;1963;-49
2021/12/25 03:10:43;;;;;;;;;;;;;;;13.59;62.33;100353.00;1046475;28;729;-54
2021/12/25 03:11:34;;;;;;;;;;;;;;;13.60;62.59;100353.84;1046593;28;683;-49
2021/12/25 03:12:33;;;;;;;;;;;;;;;13.60;61.59;100354.72;1047046;28;634;-54
2021/12/25 03:14:37;;;;;;;;;;;;;;;13.61;61.91;100360.91;1046474;28;688;-54
2021/12/25 03:15:30;;;;;;;;;;;;;;;13.58;61.73;100351.31;1045326;28;696;-53
2021/12/25 03:16:21;;;;;;;;;;;;;;;13.59;62.50;100354.84;1045846;28;605;-51
2021/12/25 03:17:11;;;;;;;;;;;;;;;13.58;61.64;100361.16;1046329;28;660;-54
2021/12/25 03:18:01;;;;;;;;;;;;;;;13.59;61.49;100363.72;1046579;28;863;-54
2021/12/25 03:18:54;;;;;;;;;;;;;;;13.58;61.92;100361.16;1046473;28;711;-49
2021/12/25 03:19:44;;;;;;;;;;;;;;;13.57;61.74;100359.47;1046000;28;732;-53
2021/12/25 03:20:36;;;;;;;;;;;;;;;13.58;61.86;100358.50;1046391;28;1068;-52
2021/12/25 03:21:27;;;;;;;;;;;;;;;13.57;62.68;100362.16;1047080;28;637;-51
2021/12/25 03:22:17;;;;;;;;;;;;;;;13.54;61.70;100366.78;1046908;28;783;-53
2021/12/25 03:23:08;;;;;;;;;;;;;;;13.54;61.56;100356.06;1046348;28;641;-52
2021/12/25 03:23:58;;;;;;;;;;;;;;;13.55;61.90;100362.28;1046550;28;673;-51
2021/12/25 03:24:49;;;;;;;;;;;;;;;13.56;61.60;100363.97;1046608;28;669;-54
2021/12/25 03:25:39;;;;;;;;;;;;;;;13.56;61.46;100358.63;1046483;28;645;-53
2021/12/25 03:26:29;;;;;;;;;;;;;;;13.53;62.05;100367.75;1046498;28;610;-53
2021/12/25 03:27:20;;;;;;;;;;;;;;;13.55;62.52;100363.13;1046297;28;616;-54
2021/12/25 03:28:10;;;;;;;;;;;;;;;13.57;62.03;100371.03;1046473;28;664;-51
2021/12/25 03:29:03;;;;;;;;;;;;;;;13.54;62.31;100366.78;1046495;28;695;-57
2021/12/25 03:29:54;;;;;;;;;;;;;;;13.53;62.44;100365.06;1045898;28;1886;-56
2021/12/25 03:30:44;;;;;;;;;;;;;;;13.52;61.54;100374.09;1047100;28;661;-58
2021/12/25 03:31:35;;;;;;;;;;;;;;;13.53;62.16;100381.13;1041823;28;660;-58
2021/12/25 03:32:25;;;;;;;;;;;;;;;13.52;62.11;100370.56;1041324;28;630;-58
2021/12/25 03:33:16;;;;;;;;;;;;;;;13.51;62.09;100364.34;1045775;28;681;-58
2021/12/25 03:34:06;;;;;;;;;;;;;;;13.51;62.59;100372.38;1046331;28;604;-58
2021/12/25 03:34:56;;;;;;;;;;;;;;;13.52;61.91;100365.22;1046444;28;680;-58
2021/12/25 03:35:47;;;;;;;;;;;;;;;13.51;62.13;100375.06;1046296;28;640;-58
2021/12/25 03:36:37;;;;;;;;;;;;;;;13.52;61.39;100371.41;1046458;28;633;-57
2021/12/25 03:37:28;;;;;;;;;;;;;;;13.52;62.29;100374.09;1046358;28;680;-58
2021/12/25 03:38:19;;;;;;;;;;;;;;;13.52;61.32;100376.75;1046353;28;664;-57
2021/12/25 03:39:10;;;;;;;;;;;;;;;13.53;62.15;100374.94;1046365;28;704;-57
2021/12/25 03:40:00;;;;;;;;;;;;;;;13.52;61.69;100375.91;1046454;28;1816;-58
2021/12/25 03:40:51;;;;;;;;;;;;;;;13.50;61.48;100378.72;1046416;28;692;-57
2021/12/25 03:41:41;;;;;;;;;;;;;;;13.50;62.32;100381.38;1046438;28;704;-58
2021/12/25 03:42:32;;;;;;;;;;;;;;;13.51;61.57;100376.88;1046102;28;633;-57
2021/12/25 03:43:22;;;;;;;;;;;;;;;13.52;62.46;100379.44;1046848;28;652;-56
2021/12/25 03:44:12;;;;;;;;;;;;;;;13.49;62.32;100385.03;1046744;28;636;-57
2021/12/25 03:45:03;;;;;;;;;;;;;;;13.48;62.36;100378.00;1047010;28;601;-57
2021/12/25 03:45:54;;;;;;;;;;;;;;;13.48;62.27;100388.69;1046205;28;1216;-58
2021/12/25 03:46:44;;;;;;;;;;;;;;;13.50;61.87;100385.91;1047518;28;629;-58
2021/12/25 03:47:37;;;;;;;;;;;;;;;13.48;62.21;100386.03;1046892;28;629;-57
2021/12/25 03:48:45;;;;;;;;;;;;;;;13.49;61.74;100382.38;1043013;28;652;-58
2021/12/25 03:53:07;;;;;;;;;;;;;;;13.50;61.53;100385.91;1043152;28;1295;-58
2021/12/25 03:53:10;;;;;;;;;;;;;;;13.47;61.75;100392.34;1046296;28;613;-57
2021/12/25 03:58:30;;;;;;;;;;;;;;;13.46;62.15;100404.03;1049762;28;652;-57
2021/12/25 03:59:20;;;;;;;;;;;;;;;13.46;62.22;100409.38;1049272;28;637;-57
2021/12/25 04:00:13;;;;;;;;;;;;;;;13.45;62.29;100407.69;1049021;28;1554;-57
2021/12/25 04:01:23;;;;;;;;;;;;;;;13.46;61.98;100401.34;1050481;28;676;-57
2021/12/25 04:02:20;;;;;;;;;;;;;;;13.46;62.00;100401.34;1050354;28;664;-57
2021/12/25 04:03:18;;;;;;;;;;;;;;;13.46;61.74;100405.88;1049188;28;641;-58
2021/12/25 04:04:31;;;;;;;;;;;;;;;13.45;61.56;100407.69;1049115;28;637;-57
2021/12/25 04:05:30;;;;;;;;;;;;;;;13.44;61.94;100403.31;1050036;28;907;-57
2021/12/25 04:06:20;;;;;;;;;;;;;;;13.43;62.14;100407.00;1049178;28;634;-57
2021/12/25 04:08:07;;;;;;;;;;;;;;;13.44;62.13;100413.16;1050424;28;679;-57
2021/12/25 04:08:58;;;;;;;;;;;;;;;13.44;62.24;100413.16;1049177;28;696;-57
2021/12/25 04:09:48;;;;;;;;;;;;;;;13.44;61.22;100415.84;1050395;28;1890;-57
2021/12/25 04:10:39;;;;;;;;;;;;;;;13.43;61.71;100412.34;1050561;28;724;-55
2021/12/25 04:11:33;;;;;;;;;;;;;;;13.43;61.74;100417.69;1048604;28;859;-56
2021/12/25 04:12:23;;;;;;;;;;;;;;;13.42;61.53;100410.66;1048674;28;681;-57
2021/12/25 04:13:14;;;;;;;;;;;;;;;13.42;61.33;100421.34;1050832;28;683;-53
2021/12/25 04:14:04;;;;;;;;;;;;;;;13.42;62.15;100424.03;1051034;28;613;-57
2021/12/25 04:14:54;;;;;;;;;;;;;;;13.43;62.02;100423.06;1051007;28;684;-56
2021/12/25 04:15:45;;;;;;;;;;;;;;;13.41;61.39;100419.66;1051066;28;665;-57
2021/12/25 04:16:35;;;;;;;;;;;;;;;13.41;61.86;100416.97;1050913;28;605;-55
2021/12/25 04:17:26;;;;;;;;;;;;;;;13.40;61.31;100420.63;1050801;28;668;-56
2021/12/25 04:18:16;;;;;;;;;;;;;;;13.41;62.11;100425.00;1051019;28;593;-55
2021/12/25 04:19:06;;;;;;;;;;;;;;;13.40;61.02;100428.66;1046819;28;640;-56
2021/12/25 04:19:57;;;;;;;;;;;;;;;13.38;61.94;100430.63;1046159;28;619;-56
2021/12/25 04:20:47;;;;;;;;;;;;;;;13.40;61.15;100428.66;1046279;28;665;-54
2021/12/25 04:21:47;;;;;;;;;;;;;;;13.40;61.44;100423.31;1046042;28;637;-56
2021/12/25 04:22:47;;;;;;;;;;;;;;;13.40;61.16;100427.81;1045502;28;661;-56
2021/12/25 04:23:40;;;;;;;;;;;;;;;13.39;62.13;100426.97;1046160;28;629;-57
2021/12/25 04:24:34;;;;;;;;;;;;;;;13.40;61.62;100427.81;1045287;28;660;-57
2021/12/25 04:25:28;;;;;;;;;;;;;;;13.38;61.62;100430.63;1045190;28;649;-57
2021/12/25 04:26:21;;;;;;;;;;;;;;;13.39;61.56;100431.47;1045211;28;708;-56
2021/12/25 04:27:14;;;;;;;;;;;;;;;13.39;61.62;100437.66;1046816;28;637;-57
2021/12/25 04:28:13;;;;;;;;;;;;;;;13.39;61.29;100426.97;1046576;28;711;-56
2021/12/25 04:29:18;;;;;;;;;;;;;;;13.39;61.85;100431.47;1046181;28;695;-56
2021/12/25 04:30:23;;;;;;;;;;;;;;;13.36;61.17;100421.00;1044953;28;1886;-55
2021/12/25 04:42:53;;;;;;;;;;;;;;;13.34;61.51;100447.91;1033963;28;641;-57
2021/12/25 04:49:58;;;;;;;;;;;;;;;13.32;60.83;100449.00;1046651;28;692;-57
2021/12/25 05:01:45;;;;;;;;;;;;;;;13.28;61.64;100453.75;1046043;28;779;-58
2021/12/25 05:04:50;;;;;;;;;;;;;;;13.27;60.65;100465.41;1049632;28;688;-58
2021/12/25 05:05:41;;;;;;;;;;;;;;;13.27;60.89;100467.25;1050076;28;711;-58
2021/12/25 05:06:31;;;;;;;;;;;;;;;13.25;61.54;100470.06;1049054;28;739;-58
2021/12/25 05:07:22;;;;;;;;;;;;;;;13.25;61.45;100467.41;1046433;28;681;-58
2021/12/25 05:08:12;;;;;;;;;;;;;;;13.25;60.82;100462.06;1046129;28;613;-55
2021/12/25 05:09:02;;;;;;;;;;;;;;;13.25;61.67;100474.56;1046180;28;664;-55
2021/12/25 05:09:53;;;;;;;;;;;;;;;13.26;61.54;100471.75;1045920;28;1897;-52
2021/12/25 05:10:44;;;;;;;;;;;;;;;13.25;61.12;100466.56;1046142;28;628;-50
2021/12/25 05:11:34;;;;;;;;;;;;;;;13.25;60.64;100464.72;1045936;28;671;-54
2021/12/25 05:12:25;;;;;;;;;;;;;;;13.26;60.53;100468.22;1046027;28;704;-52
2021/12/25 05:13:15;;;;;;;;;;;;;;;13.26;61.40;100478.91;1041595;28;699;-56
2021/12/25 05:14:05;;;;;;;;;;;;;;;13.24;60.76;100465.69;1041123;28;712;-54
2021/12/25 05:14:56;;;;;;;;;;;;;;;13.26;61.07;100468.22;1045353;28;637;-56
2021/12/25 05:15:47;;;;;;;;;;;;;;;13.24;60.48;100467.53;1045950;28;640;-56
2021/12/25 05:16:38;;;;;;;;;;;;;;;13.23;60.88;100463.16;1046117;28;680;-55
2021/12/25 05:17:28;;;;;;;;;;;;;;;13.23;60.77;100471.19;1045934;28;625;-55
2021/12/25 05:18:18;;;;;;;;;;;;;;;13.23;61.26;100473.84;1045963;28;624;-55
2021/12/25 05:19:09;;;;;;;;;;;;;;;13.22;60.78;100481.03;1046323;28;2244;-55
2021/12/25 05:19:59;;;;;;;;;;;;;;;13.23;60.74;100477.38;1045804;28;672;-54
2021/12/25 05:20:50;;;;;;;;;;;;;;;13.21;60.89;100484.69;1046056;28;636;-53
2021/12/25 05:21:40;;;;;;;;;;;;;;;13.19;60.37;100475.91;1045959;28;605;-51
2021/12/25 05:22:31;;;;;;;;;;;;;;;13.20;60.47;100474.94;1045873;28;768;-55
2021/12/25 05:23:21;;;;;;;;;;;;;;;13.20;61.10;100477.63;1046440;28;574;-52
2021/12/25 05:24:12;;;;;;;;;;;;;;;13.20;60.98;100481.16;1045884;28;719;-54
2021/12/25 05:25:02;;;;;;;;;;;;;;;13.22;60.97;100485.53;1046090;28;609;-54
2021/12/25 05:25:52;;;;;;;;;;;;;;;13.22;60.20;100478.34;1045998;28;582;-54
2021/12/25 05:26:43;;;;;;;;;;;;;;;13.20;60.88;100475.78;1047659;28;1856;-53
2021/12/25 05:27:33;;;;;;;;;;;;;;;13.21;60.06;100479.31;1042682;28;1623;-53
2021/12/25 05:28:26;;;;;;;;;;;;;;;13.19;60.71;100476.78;1046040;28;597;-54
2021/12/25 05:29:23;;;;;;;;;;;;;;;13.17;60.58;100478.72;1049386;28;625;-53
2021/12/25 05:30:14;;;;;;;;;;;;;;;13.17;61.19;100481.41;1048802;28;1953;-55
2021/12/25 05:31:04;;;;;;;;;;;;;;;13.16;60.80;100479.69;1050084;28;629;-55
2021/12/25 05:31:54;;;;;;;;;;;;;;;13.16;60.12;100482.38;1050148;28;597;-50
2021/12/25 05:32:45;;;;;;;;;;;;;;;13.16;60.47;100477.00;1045561;28;704;-55
2021/12/25 05:33:36;;;;;;;;;;;;;;;13.18;60.38;100482.25;1045585;28;858;-53
2021/12/25 05:34:26;;;;;;;;;;;;;;;13.17;60.24;100491.25;1049921;28;625;-56
2021/12/25 05:35:16;;;;;;;;;;;;;;;13.16;61.06;100489.53;1050031;28;1011;-51
2021/12/25 05:36:07;;;;;;;;;;;;;;;13.17;60.13;100485.91;1050078;28;660;-54
2021/12/25 05:36:57;;;;;;;;;;;;;;;13.16;60.63;100490.41;1047060;28;1861;-52